Rochester, MN (55903)

10:10 PM CDT on September 23, 2014 (GMT -0500)
Cairnbrae/Salem Rd | Change Station
CLOSE
Current Station
Personal Weather Station
Location: Rochester, MN
Elevation: 1056 ft
Nearby Weather Stations

Elev 1056 ft 43.98 °N, 92.56 °W | Updated 6 seconds ago

Clear
Clear
59.7 °F
Feels Like 59.7 °F
N
0.0
Wind Variable Wind from WNW
Gusts 0.0 mph

Today
High -- | Low -- °F
--% Chance of Precip.
Yesterday
High -- | Low -- °F
Precip. -- in
6:58 AM 7:05 PM
Waning Crescent, 0% visible
Pressure 30.21 in
Visibility 10.0 miles
Clouds Clear
Dew Point 54 °F
Humidity 82%
Rainfall 0.00 in
Snow Depth Not available.
UV 0 out of 12
Pollen 3.40 out of 12
Air Quality Not available.
Flu Activity Not available.
METAR K9MN 240251Z AUTO 13006KT 10SM CLR 16/09 A3021 RMK AO1 T01630090

More Conditions Fewer Conditions

Pressure 30.21 in
Visibility 10.0 miles
Clouds Clear
Dew Point 54 °F
Humidity 82%
Rainfall 0.00 in
Snow Depth Not available.
UV 0 out of 12
Pollen 3.40 out of 12
Air Quality Not available.
Flu Activity Not available.
METAR K9MN 240251Z AUTO 13006KT 10SM CLR 16/09 A3021 RMK AO1 T01630090

More Conditions Fewer Conditions

10-Day Weather Forecast

Almanac

Astronomy

Sep. 23, 2014 Rise Set
Actual Time 6:58 AM CDT 7:05 PM CDT
Civil Twilight 6:29 AM CDT 7:34 PM CDT
Nautical Twilight 5:55 AM CDT 8:08 PM CDT
Astronomical Twilight 5:21 AM CDT 8:42 PM CDT
Moon 6:22 AM CDT (9/23) 6:44 PM CDT (9/23)
Length of Visible Light 13h 04m
Length of Day
12h 07m
Tomorrow will be 3m 0s shorter.
Waning Crescent, 0% of the Moon is Illuminated
Today
Waning Crescent
Sep 24
New
Oct 1
First Quarter
Oct 8
Full
Oct 15
Last Quarter

Today's Extremes

State Highs State Lows

Community

WunderPhotos

Upload Photos

1,755,877 photos uploaded!

WunderBlogs® & News

Nearby

Snow Depth

Station Depth Elevation
No new snow has been reported.

Earthquake Activity

City Distance Mag. Time & Date
No recent earthquake activity has been reported nearby.
Minimum magnitude displayed is 2.5.

Coastal Water Temperatures

Place Temperature
No Stations Reporting

Nearby Weather Stations